This is the latest recevied weather packets stored in our database for station/object ED4YAZ-13. If no packets are shown the sender has not sent any weather packets the latest 10 day(s).
| Time | Temp. | Humidity | Pressure | Rain* | Wind** | Luminosity | Snow |
|---|---|---|---|---|---|---|---|
| 1778144552 | 12.78° C | 69% | 1011.9 hPa | - | - | - | - |
| 1778143952 | 13.33° C | 67% | 1011.9 hPa | - | - | - | - |
| 1778143360 | 14.44° C | 66% | 1011.3 hPa | - | - | - | - |
| 1778143352 | 14.44° C | 66% | 1011.3 hPa | - | - | - | - |
| 1778142752 | 12.78° C | 70% | 1011.8 hPa | - | - | - | - |
| 1778141550 | 11.67° C | 74% | 1012.2 hPa | - | - | - | - |
| 1778141545 | 11.67° C | 74% | 1012.2 hPa | - | - | - | - |
| 1778140945 | 13.33° C | 67% | 1011.3 hPa | - | - | - | - |
| 1778140345 | 12.22° C | 72% | 1011.6 hPa | - | - | - | - |
| 1778139218 | 10° C | 78% | 1012.6 hPa | - | - | - | - |
| 1778138618 | 10° C | 80% | 1012.7 hPa | - | - | - | - |
| 1778138018 | 9.44° C | 80% | 1012.7 hPa | - | - | - | - |
| 1778137418 | 10° C | 79% | 1012.4 hPa | - | - | - | - |
| 1778136805 | 10.56° C | 79% | 1012.2 hPa | - | - | - | - |
| 1778136805 | 10.56° C | 79% | 1012.2 hPa | - | - | - | - |
| 1778136205 | 9.44° C | 81% | 1012.7 hPa | - | - | - | - |
| 1778135605 | 8.89° C | 83% | 1012.9 hPa | - | - | - | - |
| 1778135005 | 8.33° C | 83% | 1013.1 hPa | - | - | - | - |
| 1778135005 | 8.33° C | 83% | 1013.1 hPa | - | - | - | - |
| 1778134405 | 8.33° C | 84% | 1013.1 hPa | - | - | - | - |
| 1778133792 | 7.78° C | 85% | 1012.9 hPa | - | - | - | - |
| 1778133792 | 7.78° C | 85% | 1012.9 hPa | - | - | - | - |
| 1778133191 | 7.78° C | 85% | 1012.9 hPa | - | - | - | - |
| 1778132591 | 7.78° C | 86% | 1012.9 hPa | - | - | - | - |
| 1778131983 | 7.78° C | 87% | 1012.9 hPa | - | - | - | - |
* Rain since midnight (hover to see other rain measurements)
** Current wind speed in m/s (hover to see current wind gust speed)